.
WxDataArchive / Data Records for 2016-05-09
2016-05-08 May 2016 2016-05-10

Data Records for Monday, 09 May 2016

Time	Temp	Chill	HIndex	Humid	Dewpt	 Wind 	HiWind	WindDir	Rain 	Barom
-----	----	-----	------	-----	-----	------	------	-------	-----	-----
00:00	49.2	49.2	49.2	79	43.0	0	0	---	0.00	29.944 
00:05	49.1	49.1	49.1	80	43.2	0	0	---	0.00	29.944 
00:10	48.8	48.8	48.8	80	42.9	0	0	---	0.00	29.944 
00:15	48.6	48.6	48.6	80	42.7	0	0	---	0.00	29.945 
00:20	48.3	48.3	48.3	80	42.4	0	0	---	0.00	29.945 
00:25	48.2	48.2	48.2	81	42.6	0	0	---	0.00	29.945 
00:30	48.0	48.0	48.0	81	42.5	0	0	---	0.00	29.945 
00:35	47.7	47.7	47.7	81	42.2	0	0	---	0.00	29.945 
00:40	47.6	47.6	47.6	82	42.4	0	0	---	0.00	29.945 
00:45	47.4	47.4	47.4	82	42.2	0	0	---	0.00	29.948 
00:50	47.1	47.1	47.1	83	42.2	0	0	---	0.00	29.948 
00:55	47.0	47.0	47.0	84	42.4	0	0	---	0.00	29.948 
01:00	46.8	46.8	46.8	84	42.2	0	0	---	0.00	29.961 
01:05	46.7	46.7	46.7	84	42.1	0	0	---	0.00	29.961 
01:10	46.5	46.5	46.5	84	41.9	0	0	---	0.00	29.961 
01:15	46.4	46.4	46.4	85	42.1	0	0	---	0.00	29.965 
01:20	46.1	46.1	46.1	85	41.8	0	0	---	0.00	29.965 
01:25	46.0	46.0	46.0	86	42.0	0	0	---	0.00	29.965 
01:30	45.8	45.8	45.8	86	41.9	0	0	---	0.00	29.971 
01:35	45.8	45.8	45.8	86	41.9	0	0	---	0.00	29.971 
01:40	45.7	45.7	45.7	87	42.1	0	0	---	0.00	29.971 
01:45	45.8	45.8	45.8	87	42.2	0	0	---	0.00	29.967 
01:50	45.8	45.8	45.8	87	42.2	0	0	---	0.00	29.967 
01:55	45.8	45.8	45.8	88	42.5	0	0	---	0.00	29.967 
02:00	45.8	45.8	45.8	88	42.5	0	0	---	0.00	29.964 
02:05	46.0	46.0	46.0	88	42.6	0	0	---	0.00	29.964 
02:10	46.1	46.1	46.1	88	42.7	0	0	---	0.00	29.964 
02:15	46.1	46.1	46.1	88	42.7	0	0	---	0.00	29.964 
02:20	46.2	46.2	46.2	88	42.8	0	0	---	0.00	29.964 
02:25	46.2	46.2	46.2	89	43.1	0	0	---	0.00	29.964 
02:30	46.2	46.2	46.2	89	43.1	0	0	---	0.00	29.963 
02:35	46.4	46.4	46.4	89	43.3	0	0	---	0.00	29.963 
02:40	46.4	46.4	46.4	89	43.3	0	0	---	0.00	29.963 
02:45	46.4	46.4	46.4	89	43.3	0	0	---	0.00	29.958 
02:50	46.4	46.4	46.4	89	43.3	0	0	---	0.00	29.958 
02:55	46.2	46.2	46.2	89	43.1	0	0	---	0.00	29.958 
03:00	46.2	46.2	46.2	89	43.1	0	0	---	0.00	29.949 
03:05	46.1	46.1	46.1	90	43.3	0	0	---	0.00	29.949 
03:10	46.1	46.1	46.1	90	43.3	0	0	---	0.00	29.949 
03:15	46.0	46.0	46.0	90	43.2	0	0	---	0.00	29.946 
03:20	45.8	45.8	45.8	90	43.0	0	0	---	0.00	29.946 
03:25	45.7	45.7	45.7	90	42.9	0	0	---	0.00	29.946 
03:30	45.7	45.7	45.7	90	42.9	0	0	---	0.00	29.945 
03:35	45.8	45.8	45.8	91	43.3	0	0	---	0.00	29.945 
03:40	45.8	45.8	45.8	90	43.0	0	0	---	0.00	29.945 
03:45	45.8	45.8	45.8	90	43.0	0	0	---	0.00	29.948 
03:50	46.0	46.0	46.0	91	43.5	0	0	---	0.00	29.948 
03:55	46.2	46.2	46.2	91	43.7	0	0	---	0.00	29.948 
04:00	46.2	46.2	46.2	91	43.7	0	0	---	0.00	29.959 
04:05	46.4	46.4	46.4	91	43.9	0	0	---	0.00	29.959 
04:10	46.7	46.7	46.7	92	44.5	0	0	---	0.00	29.959 
04:15	47.0	47.0	47.0	92	44.8	0	0	---	0.00	29.948 
04:20	47.3	47.3	47.3	92	45.1	0	0	---	0.00	29.948 
04:25	47.4	47.4	47.4	92	45.2	0	0	---	0.00	29.948 
04:30	47.4	47.4	47.4	92	45.2	0	0	---	0.00	29.957 
04:35	47.6	47.6	47.6	92	45.4	0	0	---	0.00	29.957 
04:40	47.6	47.6	47.6	92	45.4	0	0	---	0.00	29.957 
04:45	47.7	47.7	47.7	92	45.5	0	0	---	0.00	29.961 
04:50	47.7	47.7	47.7	92	45.5	0	0	---	0.00	29.961 
04:55	47.9	47.9	47.9	92	45.7	0	0	---	0.00	29.961 
05:00	47.9	47.9	47.9	92	45.7	0	0	---	0.00	29.962 
05:05	48.0	48.0	48.0	92	45.8	0	0	---	0.00	29.962 
05:10	48.0	48.0	48.0	92	45.8	0	0	---	0.00	29.962 
05:15	48.0	48.0	48.0	91	45.5	0	0	---	0.00	29.962 
05:20	48.2	48.2	48.2	92	46.0	0	0	---	0.00	29.962 
05:25	48.3	48.3	48.3	92	46.1	0	0	---	0.00	29.962 
05:30	48.5	48.5	48.5	91	46.0	0	0	---	0.00	29.954 
05:35	48.6	48.6	48.6	91	46.1	0	0	---	0.00	29.954 
05:40	48.6	48.6	48.6	90	45.8	0	0	---	0.00	29.954 
05:45	48.8	48.8	48.8	90	46.0	0	0	---	0.00	29.958 
05:50	48.8	48.8	48.8	90	46.0	0	0	---	0.00	29.958 
05:55	48.8	48.8	48.8	89	45.7	0	0	---	0.00	29.958 
06:00	48.9	48.9	48.9	89	45.8	0	0	---	0.00	29.947 
06:05	48.9	48.9	48.9	88	45.5	0	0	---	0.00	29.947 
06:10	48.9	48.9	48.9	88	45.5	0	0	---	0.00	29.947 
06:15	48.9	48.9	48.9	88	45.5	0	0	---	0.00	29.948 
06:20	48.9	48.9	48.9	88	45.5	0	0	---	0.00	29.948 
06:25	48.9	48.9	48.9	88	45.5	0	0	---	0.00	29.948 
06:30	49.1	49.1	49.1	88	45.7	0	0	---	0.00	29.956 
06:35	49.1	49.1	49.1	88	45.7	0	0	---	0.00	29.956 
06:40	49.1	49.1	49.1	88	45.7	0	1	292	0.00	29.956 
06:45	49.1	49.1	49.1	88	45.7	0	0	---	0.00	29.961 
06:50	49.2	49.2	49.2	88	45.8	0	0	---	0.00	29.961 
06:55	49.2	49.2	49.2	88	45.8	0	0	---	0.00	29.961 
07:00	49.2	49.2	49.2	88	45.8	0	0	---	0.00	29.972 
07:05	49.4	49.4	49.4	88	46.0	0	0	---	0.00	29.972 
07:10	49.4	49.4	49.4	88	46.0	0	0	---	0.00	29.972 
07:15	49.5	49.5	49.5	88	46.1	0	0	---	0.00	29.981 
07:20	49.6	49.6	49.6	88	46.2	0	0	---	0.00	29.981 
07:25	49.8	49.8	49.8	89	46.7	0	0	---	0.00	29.981 
07:30	49.8	49.8	49.8	89	46.7	0	0	---	0.00	29.983 
07:35	49.9	49.9	49.9	89	46.8	0	0	---	0.00	29.983 
07:40	49.9	49.9	49.9	89	46.8	0	0	---	0.00	29.983 
07:45	49.9	49.9	49.9	89	46.8	0	0	---	0.00	29.992 
07:50	50.1	50.1	50.1	89	47.0	0	0	---	0.00	29.992 
07:55	50.1	50.1	50.1	89	47.0	0	0	---	0.00	29.992 
08:00	50.1	50.1	50.1	89	47.0	0	0	---	0.00	29.999 
08:05	50.1	50.1	50.1	89	47.0	0	0	---	0.01	29.999 
08:10	50.2	50.2	50.2	89	47.1	0	0	---	0.00	29.999 
08:15	50.2	50.2	50.2	90	47.4	0	0	---	0.00	30.014 
08:20	50.4	50.4	50.4	90	47.6	0	0	---	0.00	30.014 
08:25	50.4	50.4	50.4	90	47.6	0	0	---	0.00	30.014 
08:30	50.5	50.5	50.5	90	47.7	0	0	---	0.01	30.026 
08:35	50.5	50.5	50.5	90	47.7	0	0	---	0.00	30.026 
08:40	50.5	50.5	50.5	90	47.7	0	0	---	0.00	30.026 
08:45	50.7	50.7	50.7	91	48.2	0	0	---	0.00	30.030 
08:50	50.7	50.7	50.7	91	48.2	0	1	158	0.00	30.030 
08:55	50.7	50.7	50.7	91	48.2	0	0	---	0.01	30.030 
09:00	50.7	50.7	50.7	91	48.2	0	1	158	0.00	30.025 
09:05	50.7	50.7	50.7	91	48.2	0	0	---	0.00	30.025 
09:10	50.8	50.8	50.8	92	48.6	0	1	158	0.00	30.025 
09:15	50.8	50.8	50.8	92	48.6	0	1	158	0.00	30.028 
09:20	50.8	50.8	50.8	91	48.3	0	2	158	0.00	30.028 
09:25	50.8	50.8	50.8	91	48.3	0	2	158	0.00	30.028 
09:30	50.8	50.8	50.8	91	48.3	0	1	158	0.00	30.034 
09:35	50.8	50.8	50.8	91	48.3	0	1	158	0.00	30.034 
09:40	50.8	50.8	50.8	91	48.3	0	1	158	0.00	30.034 
09:45	50.8	50.8	50.8	91	48.3	0	1	158	0.00	30.036 
09:50	50.8	50.8	50.8	91	48.3	0	1	158	0.01	30.036 
09:55	50.8	50.8	50.8	90	48.0	0	1	158	0.00	30.036 
10:00	50.8	50.8	50.8	90	48.0	0	2	158	0.00	30.031 
10:05	50.8	50.8	50.8	90	48.0	1	3	158	0.00	30.031 
10:10	51.0	51.0	51.0	89	47.9	0	2	135	0.00	30.031 
10:15	51.0	51.0	51.0	89	47.9	0	1	135	0.00	30.032 
10:20	51.3	51.3	51.3	89	48.2	0	1	135	0.00	30.032 
10:25	51.4	51.4	51.4	89	48.3	0	3	135	0.00	30.032 
10:30	51.6	51.6	51.6	89	48.5	1	3	135	0.00	30.023 
10:35	51.6	51.6	51.6	89	48.5	1	2	112	0.00	30.023 
10:40	51.7	51.7	51.7	88	48.3	1	3	112	0.00	30.023 
10:45	51.7	51.7	51.7	88	48.3	0	2	112	0.00	30.026 
10:50	51.9	51.9	51.9	88	48.5	0	2	112	0.00	30.026 
10:55	52.0	52.0	52.0	88	48.6	0	2	112	0.00	30.026 
11:00	52.0	52.0	52.0	87	48.3	0	2	112	0.00	30.032 
11:05	52.0	52.0	52.0	86	47.9	0	2	90	0.00	30.032 
11:10	52.2	52.2	52.2	87	48.4	0	2	90	0.00	30.032 
11:15	52.2	52.2	52.2	85	47.8	0	2	90	0.00	30.039 
11:20	52.2	52.2	52.2	85	47.8	0	2	90	0.00	30.039 
11:25	52.3	52.3	52.3	84	47.6	0	3	90	0.00	30.039 
11:30	52.3	52.3	52.3	83	47.3	0	3	90	0.00	30.042 
11:35	52.2	52.2	52.2	82	46.9	0	2	90	0.00	30.042 
11:40	52.3	52.3	52.3	82	47.0	0	1	90	0.00	30.042 
11:45	52.2	52.2	52.2	81	46.5	0	3	90	0.00	30.052 
11:50	52.2	52.2	52.2	81	46.5	0	2	90	0.00	30.052 
11:55	52.2	52.2	52.2	81	46.5	0	3	90	0.00	30.052 
12:00	52.2	52.2	52.2	81	46.5	0	2	90	0.00	30.053 
12:05	52.2	52.2	52.2	82	46.9	0	1	90	0.00	30.053 
12:10	52.2	52.2	52.2	82	46.9	0	2	90	0.00	30.053 
12:15	52.3	52.3	52.3	81	46.6	0	2	90	0.00	30.053 
12:20	52.3	52.3	52.3	80	46.3	0	3	90	0.00	30.053 
12:25	52.5	52.5	52.5	79	46.2	1	3	90	0.00	30.053 
12:30	52.6	52.6	52.6	80	46.6	0	1	90	0.00	30.042 
12:35	52.8	52.8	52.8	80	46.8	0	2	90	0.00	30.042 
12:40	52.8	52.8	52.8	79	46.5	0	2	90	0.00	30.042 
12:45	52.8	52.8	52.8	78	46.1	0	2	90	0.00	30.039 
12:50	52.9	52.9	52.9	77	45.9	1	3	90	0.00	30.039 
12:55	53.2	53.2	53.2	78	46.5	1	3	90	0.00	30.039 
13:00	53.2	53.2	53.2	77	46.2	1	2	90	0.00	30.043 
13:05	53.3	53.3	53.3	77	46.3	1	3	90	0.00	30.043 
13:10	53.3	53.3	53.3	76	45.9	1	3	90	0.00	30.043 
13:15	53.3	53.3	53.3	75	45.6	1	3	90	0.00	30.040 
13:20	53.5	53.5	53.5	75	45.8	1	4	90	0.00	30.040 
13:25	53.5	53.5	53.5	70	44.0	2	6	90	0.00	30.040 
13:30	53.3	53.3	53.3	70	43.8	2	5	112	0.00	30.046 
13:35	53.3	53.3	53.3	70	43.8	1	5	112	0.00	30.046 
13:40	53.2	53.2	53.2	71	44.0	1	4	112	0.00	30.046 
13:45	53.2	53.2	53.2	71	44.0	0	3	112	0.00	30.050 
13:50	53.2	53.2	53.2	70	43.7	1	4	112	0.00	30.050 
13:55	53.2	53.2	53.2	70	43.7	1	2	112	0.00	30.050 
14:00	53.2	53.2	53.2	69	43.3	1	4	112	0.00	30.044 
14:05	53.2	53.2	53.2	70	43.7	1	4	45	0.00	30.044 
14:10	53.3	53.3	53.3	70	43.8	1	3	45	0.00	30.044 
14:15	53.3	53.3	53.3	70	43.8	1	3	45	0.00	30.054 
14:20	53.5	53.5	53.5	69	43.6	1	4	45	0.00	30.054 
14:25	53.5	53.5	53.5	70	44.0	1	4	45	0.00	30.054 
14:30	53.5	53.5	53.5	70	44.0	1	4	45	0.00	30.052 
14:35	53.6	53.6	53.6	69	43.7	1	3	45	0.00	30.052 
14:40	53.6	53.6	53.6	69	43.7	1	4	68	0.00	30.052 
14:45	53.6	53.6	53.6	69	43.7	2	5	68	0.00	30.050 
14:50	53.6	53.6	53.6	69	43.7	1	3	68	0.00	30.050 
14:55	53.5	53.5	53.5	69	43.6	2	6	90	0.00	30.050 
15:00	53.5	53.5	53.5	69	43.6	2	4	90	0.00	30.044 
15:05	53.5	53.5	53.5	70	44.0	1	4	90	0.00	30.044 
15:10	53.6	53.6	53.6	71	44.4	1	4	90	0.00	30.044 
15:15	53.8	53.8	53.8	70	44.2	1	5	90	0.00	30.039 
15:20	53.9	53.9	53.9	70	44.3	1	4	112	0.00	30.039 
15:25	54.1	54.1	54.1	71	44.9	1	4	112	0.00	30.039 
15:30	53.9	53.9	53.9	72	45.1	1	5	112	0.00	30.038 
15:35	53.6	53.6	53.6	71	44.4	2	6	112	0.00	30.038 
15:40	53.5	53.5	53.5	72	44.7	1	4	90	0.00	30.038 
15:45	53.3	53.3	53.3	73	44.9	1	3	90	0.00	30.039 
15:50	53.3	53.3	53.3	73	44.9	1	5	90	0.00	30.039 
15:55	53.3	53.3	53.3	71	44.1	3	6	90	0.00	30.039 
16:00	53.3	53.3	53.3	70	43.8	2	7	90	0.00	30.035 
16:05	53.3	53.3	53.3	71	44.1	1	4	90	0.00	30.035 
16:10	53.5	53.5	53.5	71	44.3	2	7	90	0.00	30.035 
16:15	53.5	53.5	53.5	72	44.7	1	5	90	0.00	30.031 
16:20	53.5	53.5	53.5	73	45.1	1	4	90	0.00	30.031 
16:25	53.3	53.3	53.3	74	45.2	1	3	90	0.00	30.031 
16:30	53.2	53.2	53.2	73	44.8	1	3	90	0.00	30.029 
16:35	52.9	52.9	52.9	73	44.5	2	6	90	0.00	30.029 
16:40	52.6	52.6	52.6	73	44.2	3	7	112	0.00	30.029 
16:45	52.5	52.5	52.5	75	44.8	2	4	90	0.00	30.029 
16:50	52.2	52.2	52.2	77	45.2	2	6	90	0.00	30.029 
16:55	51.9	51.9	51.9	77	44.9	2	5	90	0.00	30.029 
17:00	51.7	51.7	51.7	78	45.1	2	5	90	0.00	30.021 
17:05	51.6	51.6	51.6	79	45.3	2	4	90	0.01	30.021 
17:10	51.6	51.6	51.6	79	45.3	2	4	90	0.00	30.021 
17:15	51.6	51.6	51.6	80	45.6	2	4	90	0.00	30.020 
17:20	51.4	51.4	51.4	81	45.8	2	4	90	0.00	30.020 
17:25	51.3	51.3	51.3	82	46.0	2	5	90	0.00	30.020 
17:30	51.1	51.1	51.1	82	45.8	2	4	90	0.00	30.020 
17:35	51.0	51.0	51.0	82	45.7	3	5	90	0.00	30.020 
17:40	51.1	51.1	51.1	83	46.1	2	4	90	0.00	30.020 
17:45	51.1	51.1	51.1	83	46.1	2	5	90	0.00	30.017 
17:50	51.1	51.1	51.1	83	46.1	1	4	68	0.00	30.017 
17:55	51.1	51.1	51.1	83	46.1	2	5	68	0.00	30.017 
18:00	51.1	51.1	51.1	84	46.4	2	4	68	0.01	30.012 
18:05	51.0	51.0	51.0	84	46.3	3	6	112	0.00	30.012 
18:10	51.0	51.0	51.0	84	46.3	2	4	90	0.00	30.012 
18:15	50.8	50.8	50.8	85	46.5	3	6	90	0.00	30.017 
18:20	50.5	50.5	50.5	85	46.2	3	9	90	0.01	30.017 
18:25	50.2	50.2	50.2	86	46.2	4	7	90	0.01	30.017 
18:30	50.1	50.1	50.1	87	46.4	4	7	90	0.00	30.017 
18:35	49.9	49.9	49.9	88	46.5	3	7	68	0.00	30.017 
18:40	49.8	49.8	49.8	88	46.4	2	4	45	0.00	30.017 
18:45	49.6	49.6	49.6	88	46.2	2	5	90	0.01	30.018 
18:50	49.5	49.5	49.5	89	46.4	3	6	90	0.00	30.018 
18:55	49.4	49.4	49.4	89	46.3	2	6	112	0.00	30.018 
19:00	49.2	49.2	49.2	90	46.4	2	7	90	0.01	30.018 
19:05	49.2	49.2	49.2	90	46.4	1	4	90	0.01	30.018 
19:10	49.2	49.2	49.2	91	46.7	1	4	68	0.00	30.018 
19:15	49.2	49.2	49.2	91	46.7	1	3	68	0.01	30.021 
19:20	49.2	49.2	49.2	92	47.0	1	4	68	0.00	30.021 
19:25	49.2	49.2	49.2	92	47.0	2	4	90	0.01	30.021 
19:30	49.2	49.2	49.2	92	47.0	2	6	68	0.00	30.014 
19:35	49.2	49.2	49.2	92	47.0	2	5	112	0.00	30.014 
19:40	49.2	49.2	49.2	92	47.0	2	4	112	0.00	30.014 
19:45	49.2	49.2	49.2	92	47.0	1	4	112	0.00	30.021 
19:50	49.2	49.2	49.2	93	47.3	1	3	90	0.00	30.021 
19:55	49.1	49.1	49.1	93	47.2	1	4	90	0.00	30.021 
20:00	49.1	49.1	49.1	93	47.2	2	4	90	0.00	30.018 
20:05	48.9	48.9	48.9	93	47.0	2	4	90	0.00	30.018 
20:10	48.9	48.9	48.9	93	47.0	2	5	90	0.00	30.018 
20:15	48.8	47.5	48.8	93	46.9	4	6	90	0.00	30.014 
20:20	48.8	48.8	48.8	92	46.6	3	6	90	0.00	30.014 
20:25	48.8	47.5	48.8	92	46.6	4	9	112	0.00	30.014 
20:30	48.8	47.5	48.8	92	46.6	4	9	112	0.00	30.012 
20:35	48.8	48.8	48.8	92	46.6	3	6	112	0.00	30.012 
20:40	48.8	48.8	48.8	92	46.6	3	7	112	0.01	30.012 
20:45	48.8	48.8	48.8	92	46.6	3	6	112	0.00	30.017 
20:50	48.6	48.6	48.6	92	46.4	2	4	90	0.00	30.017 
20:55	48.5	48.5	48.5	92	46.3	3	6	90	0.00	30.017 
21:00	48.5	48.5	48.5	92	46.3	3	8	90	0.00	30.019 
21:05	48.3	48.3	48.3	92	46.1	2	5	112	0.00	30.019 
21:10	48.5	48.5	48.5	92	46.3	2	5	90	0.00	30.019 
21:15	48.5	48.5	48.5	92	46.3	2	4	90	0.01	30.021 
21:20	48.5	48.5	48.5	92	46.3	2	6	90	0.00	30.021 
21:25	48.5	48.5	48.5	92	46.3	2	5	90	0.00	30.021 
21:30	48.5	48.5	48.5	93	46.6	3	6	90	0.00	30.022 
21:35	48.5	48.5	48.5	93	46.6	3	7	68	0.00	30.022 
21:40	48.5	48.5	48.5	93	46.6	3	8	112	0.00	30.022 
21:45	48.5	48.5	48.5	93	46.6	2	5	112	0.00	30.024 
21:50	48.5	48.5	48.5	93	46.6	3	5	112	0.00	30.024 
21:55	48.5	48.5	48.5	93	46.6	3	6	112	0.00	30.024 
22:00	48.5	48.5	48.5	93	46.6	3	6	90	0.01	30.022 
22:05	48.5	48.5	48.5	93	46.6	3	7	90	0.00	30.022 
22:10	48.5	47.1	48.5	93	46.6	4	10	112	0.01	30.022 
22:15	48.5	48.5	48.5	93	46.6	3	6	112	0.00	30.026 
22:20	48.5	48.5	48.5	93	46.6	3	6	90	0.01	30.026 
22:25	48.5	48.5	48.5	93	46.6	3	5	90	0.00	30.026 
22:30	48.5	48.5	48.5	94	46.9	2	6	68	0.00	30.029 
22:35	48.5	48.5	48.5	94	46.9	3	6	90	0.00	30.029 
22:40	48.6	48.6	48.6	94	47.0	2	5	90	0.01	30.029 
22:45	48.6	48.6	48.6	94	47.0	2	6	68	0.00	30.024 
22:50	48.6	48.6	48.6	94	47.0	2	6	68	0.00	30.024 
22:55	48.8	48.8	48.8	94	47.1	1	5	68	0.00	30.024 
23:00	48.8	48.8	48.8	94	47.1	2	5	68	0.01	30.027 
23:05	48.8	48.8	48.8	94	47.1	2	5	90	0.00	30.027 
23:10	48.9	48.9	48.9	94	47.2	2	6	112	0.00	30.027 
23:15	48.9	48.9	48.9	94	47.2	2	6	112	0.01	30.028 
23:20	48.9	48.9	48.9	95	47.5	1	4	112	0.01	30.028 
23:25	48.9	48.9	48.9	95	47.5	2	5	112	0.01	30.028 
23:30	48.9	48.9	48.9	95	47.5	2	5	90	0.01	30.025 
23:35	48.9	48.9	48.9	95	47.5	2	4	90	0.00	30.025 
23:40	48.9	48.9	48.9	95	47.5	2	5	90	0.01	30.025 
23:45	48.9	48.9	48.9	95	47.5	3	6	68	0.01	30.022 
23:50	48.9	48.9	48.9	95	47.5	2	4	90	0.00	30.022 
23:55	48.9	48.9	48.9	95	47.5	2	4	90	0.01	30.022 

CoCoRaHS
IN-AL-39
A2 Web Hosting
Creative Commons License
GoDaddy
search engine by freefind advanced

loaded 2018-11-17 19:21:23 • last modified 2010-11-18 10:43:29
Privacy PolicyDisclaimer
• wx.awcolley.com is powered by PmWiki v.2002016 •
• all content (unless otherwise noted) © 2018 A W Colley